createdAt,value
2023-01-08T00:01:59.717Z,25.98
2023-01-08T00:07:01.510Z,25.55
2023-01-08T00:12:03.150Z,23.77
2023-01-08T00:17:05.855Z,21.60
2023-01-08T00:22:07.559Z,21.10
2023-01-08T00:27:09.205Z,20.83
2023-01-08T00:32:10.836Z,20.08
2023-01-08T00:37:12.493Z,18.05
2023-01-08T00:42:14.136Z,18.05
2023-01-08T00:47:15.788Z,18.83
2023-01-08T00:52:17.427Z,18.48
2023-01-08T00:57:19.060Z,17.75
2023-01-08T01:02:20.750Z,17.63
2023-01-08T01:07:22.624Z,19.63
2023-01-08T01:12:24.349Z,17.63
2023-01-08T01:17:25.973Z,18.42
2023-01-08T01:22:27.621Z,19.20
2023-01-08T01:27:29.247Z,17.35
2023-01-08T01:32:31.089Z,18.83
2023-01-08T01:37:32.969Z,16.38
2023-01-08T01:42:40.374Z,17.80
2023-01-08T01:47:42.528Z,15.73
2023-01-08T01:53:03.753Z,17.40
2023-01-08T01:58:13.707Z,18.33
2023-01-08T02:03:16.869Z,15.15
2023-01-08T02:08:28.976Z,17.70
2023-01-08T02:13:34.931Z,16.30
2023-01-08T02:18:48.370Z,15.48
2023-01-08T02:24:03.177Z,16.20
2023-01-08T02:29:08.082Z,16.45
2023-01-08T02:34:10.928Z,14.82
2023-01-08T02:39:23.869Z,17.17
2023-01-08T02:44:37.675Z,16.38
2023-01-08T02:49:42.819Z,16.35
2023-01-08T02:54:46.810Z,15.10
2023-01-08T02:59:50.302Z,17.60
2023-01-08T03:04:57.267Z,16.33
2023-01-08T03:09:59.466Z,37.58
2023-01-08T03:15:06.244Z,22.58
2023-01-08T03:20:11.934Z,23.83
2023-01-08T03:25:15.532Z,23.95
2023-01-08T03:30:19.876Z,21.20
2023-01-08T03:35:24.139Z,19.63
2023-01-08T03:40:37.897Z,17.65
2023-01-08T03:45:46.590Z,18.58
2023-01-08T03:50:49.060Z,18.25
2023-01-08T03:55:50.693Z,19.05
2023-01-08T04:00:52.797Z,17.70
2023-01-08T04:05:54.430Z,18.63
2023-01-08T04:10:56.088Z,16.67
2023-01-08T04:15:58.315Z,18.02
2023-01-08T04:21:00.744Z,18.20
2023-01-08T04:26:08.696Z,17.08
2023-01-08T04:31:10.689Z,16.30
2023-01-08T04:36:12.455Z,16.23
2023-01-08T04:41:14.080Z,15.00
2023-01-08T04:46:15.772Z,16.13
2023-01-08T04:51:17.461Z,15.25
2023-01-08T04:56:19.102Z,16.00
2023-01-08T05:01:23.536Z,15.45
2023-01-08T05:06:26.000Z,16.10
2023-01-08T05:11:27.942Z,14.68
2023-01-08T05:16:29.553Z,15.55
2023-01-08T05:21:31.222Z,16.15
2023-01-08T05:26:32.997Z,15.77
2023-01-08T05:31:35.296Z,15.77
2023-01-08T05:36:36.916Z,16.55
2023-01-08T05:41:38.527Z,17.08
2023-01-08T05:46:40.255Z,15.93
2023-01-08T05:51:41.901Z,15.10
2023-01-08T05:56:46.393Z,16.13
2023-01-08T06:01:48.094Z,15.82
2023-01-08T06:06:49.725Z,15.82
2023-01-08T06:11:51.448Z,16.30
2023-01-08T06:16:53.092Z,16.85
2023-01-08T06:21:54.731Z,15.73
2023-01-08T06:26:56.422Z,15.73
2023-01-08T06:31:58.043Z,16.63
2023-01-08T06:36:59.631Z,15.45
2023-01-08T06:42:01.281Z,19.05
2023-01-08T06:47:02.890Z,18.23
2023-01-08T06:52:04.564Z,18.08
2023-01-08T06:57:06.167Z,23.10
2023-01-08T07:02:13.729Z,20.25
2023-01-08T07:07:15.544Z,17.40
2023-01-08T07:12:17.139Z,16.98
2023-01-08T07:17:18.773Z,17.30
2023-01-08T07:22:21.193Z,15.65
2023-01-08T07:27:22.856Z,16.23
2023-01-08T07:32:24.570Z,16.70
2023-01-08T07:37:26.650Z,14.13
2023-01-08T07:42:28.537Z,13.75
2023-01-08T07:47:30.267Z,14.25
2023-01-08T07:52:31.891Z,14.45
2023-01-08T07:57:33.474Z,15.35
2023-01-08T08:02:36.004Z,13.52
2023-01-08T08:07:37.704Z,13.48
2023-01-08T08:12:39.304Z,14.50
2023-01-08T08:17:45.049Z,14.23
2023-01-08T08:22:46.673Z,14.18
2023-01-08T08:27:48.317Z,13.77
2023-01-08T08:32:49.918Z,13.15
2023-01-08T08:37:51.526Z,12.43
2023-01-08T08:43:01.265Z,12.18
2023-01-08T08:48:06.109Z,12.63
2023-01-08T08:53:08.037Z,12.65
2023-01-08T08:58:12.780Z,12.80
2023-01-08T09:03:15.331Z,15.65
2023-01-08T09:08:16.997Z,15.23
2023-01-08T09:13:18.649Z,16.27
2023-01-08T09:18:20.263Z,14.10
2023-01-08T09:23:21.856Z,14.27
2023-01-08T09:28:23.457Z,16.90
2023-01-08T09:33:25.066Z,16.90
2023-01-08T09:38:29.556Z,18.08
2023-01-08T09:43:35.285Z,17.45
2023-01-08T09:48:39.404Z,16.38
2023-01-08T09:53:43.236Z,16.50
2023-01-08T09:58:54.512Z,10.98
2023-01-08T10:04:04.481Z,15.45
2023-01-08T10:09:08.920Z,10.85
2023-01-08T10:14:27.078Z,12.07
2023-01-08T10:19:29.017Z,9.88
2023-01-08T10:24:32.694Z,8.68
2023-01-08T10:29:34.307Z,6.68
2023-01-08T10:34:49.311Z,6.40
2023-01-08T10:39:52.518Z,7.20
2023-01-08T10:45:07.669Z,7.47
2023-01-08T10:50:22.575Z,6.70
2023-01-08T10:55:27.081Z,6.10
2023-01-08T11:00:33.611Z,5.68
2023-01-08T11:05:37.740Z,5.05
2023-01-08T11:10:39.463Z,6.25
2023-01-08T11:15:41.866Z,5.47
2023-01-08T11:20:44.010Z,4.88
2023-01-08T11:26:02.709Z,4.78
2023-01-08T11:31:36.963Z,4.20
2023-01-08T11:36:49.016Z,4.40
2023-01-08T11:41:53.278Z,4.85
2023-01-08T11:47:13.367Z,3.83
2023-01-08T11:52:23.117Z,7.35
2023-01-08T11:57:46.359Z,7.30
2023-01-08T12:02:56.872Z,9.15
2023-01-08T12:08:12.722Z,8.05
2023-01-08T12:13:32.767Z,6.93
2023-01-08T12:19:07.988Z,6.75
2023-01-08T12:24:29.514Z,6.03
2023-01-08T12:29:31.072Z,4.97
2023-01-08T12:35:00.452Z,4.78
2023-01-08T12:40:18.958Z,4.85
2023-01-08T12:45:27.909Z,4.97
2023-01-08T12:50:49.842Z,5.22
2023-01-08T12:56:01.034Z,5.15
2023-01-08T13:01:26.034Z,5.28
2023-01-08T13:06:27.932Z,5.63
2023-01-08T13:11:33.211Z,5.13
2023-01-08T13:16:40.318Z,5.35
2023-01-08T13:21:50.499Z,4.97
2023-01-08T13:26:52.821Z,4.40
2023-01-08T13:31:54.632Z,4.65
2023-01-08T13:37:00.484Z,4.70
2023-01-08T13:42:17.575Z,4.10
2023-01-08T13:47:31.956Z,5.10
2023-01-08T13:52:41.257Z,4.80
2023-01-08T13:57:48.104Z,3.97
2023-01-08T14:02:55.018Z,5.07
2023-01-08T14:07:59.064Z,5.60
2023-01-08T14:13:08.987Z,6.18
2023-01-08T14:18:13.613Z,6.70
2023-01-08T14:23:23.437Z,6.03
2023-01-08T14:28:25.023Z,6.88
2023-01-08T14:33:33.958Z,7.00
2023-01-08T14:38:36.181Z,6.88
2023-01-08T14:43:47.128Z,6.25
2023-01-08T14:48:49.556Z,6.32
2023-01-08T14:53:56.608Z,7.72
2023-01-08T14:58:59.054Z,6.18
2023-01-08T15:04:27.298Z,6.18
2023-01-08T15:09:34.380Z,6.07
2023-01-08T15:14:37.153Z,5.45
2023-01-08T15:19:48.386Z,5.47
2023-01-08T15:24:58.389Z,5.72
2023-01-08T15:30:00.966Z,5.88
2023-01-08T15:35:14.240Z,5.47
2023-01-08T15:40:15.842Z,5.72
2023-01-08T15:45:20.370Z,5.72
2023-01-08T15:50:22.297Z,5.82
2023-01-08T15:55:25.020Z,5.72
2023-01-08T16:00:26.830Z,5.97
2023-01-08T16:05:29.471Z,6.50
2023-01-08T16:10:32.058Z,5.75
2023-01-08T16:15:33.691Z,6.78
2023-01-08T16:20:35.542Z,5.97
2023-01-08T16:25:39.816Z,6.32
2023-01-08T16:30:42.677Z,6.55
2023-01-08T16:35:44.286Z,5.95
2023-01-08T16:40:45.886Z,6.40
2023-01-08T16:45:48.406Z,5.75
2023-01-08T16:50:50.082Z,6.65
2023-01-08T16:55:51.668Z,6.43
2023-01-08T17:00:53.373Z,6.97
2023-01-08T17:06:00.157Z,6.70
2023-01-08T17:11:06.958Z,6.88
2023-01-08T17:16:11.354Z,6.70
2023-01-08T17:21:14.499Z,6.93
2023-01-08T17:26:20.003Z,7.20
2023-01-08T17:31:21.721Z,6.22
2023-01-08T17:36:26.564Z,7.10
2023-01-08T17:41:46.478Z,7.05
2023-01-08T17:46:48.170Z,8.02
2023-01-08T17:51:50.325Z,9.10
2023-01-08T17:56:53.619Z,9.90
2023-01-08T18:01:55.379Z,9.38
2023-01-08T18:06:57.053Z,7.97
2023-01-08T18:11:58.880Z,8.18
2023-01-08T18:17:00.494Z,8.02
2023-01-08T18:22:02.101Z,8.32
2023-01-08T18:27:04.056Z,8.40
2023-01-08T18:32:06.029Z,8.80
2023-01-08T18:37:07.706Z,9.20
2023-01-08T18:42:28.006Z,8.68
2023-01-08T18:47:30.081Z,9.57
2023-01-08T18:52:31.739Z,10.20
2023-01-08T18:57:33.385Z,9.70
2023-01-08T19:02:35.084Z,8.30
2023-01-08T19:07:36.834Z,8.52
2023-01-08T19:12:39.264Z,8.35
2023-01-08T19:17:40.871Z,8.85
2023-01-08T19:22:42.477Z,7.80
2023-01-08T19:27:44.254Z,8.80
2023-01-08T19:32:48.941Z,8.85
2023-01-08T19:37:50.587Z,9.30
2023-01-08T19:43:10.638Z,13.35
2023-01-08T19:48:12.285Z,14.55
2023-01-08T19:53:14.780Z,15.77
2023-01-08T19:58:18.641Z,16.27
2023-01-08T20:03:29.514Z,14.82
2023-01-08T20:08:31.873Z,15.07
2023-01-08T20:13:36.104Z,14.75
2023-01-08T20:18:38.528Z,14.38
2023-01-08T20:23:40.658Z,14.75
2023-01-08T20:28:44.288Z,17.48
2023-01-08T20:33:46.400Z,19.00
2023-01-08T20:38:52.751Z,14.75
2023-01-08T20:43:57.493Z,17.33
2023-01-08T20:49:03.598Z,14.18
2023-01-08T20:54:08.455Z,15.57
2023-01-08T20:59:10.881Z,16.02
2023-01-08T21:04:12.652Z,17.77
2023-01-08T21:09:16.606Z,17.55
2023-01-08T21:14:18.264Z,18.35
2023-01-08T21:19:19.886Z,17.00
2023-01-08T21:24:21.555Z,17.30
2023-01-08T21:29:23.624Z,15.82
2023-01-08T21:34:26.078Z,14.98
2023-01-08T21:39:27.860Z,16.00
2023-01-08T21:44:48.027Z,17.67
2023-01-08T21:49:50.158Z,17.33
2023-01-08T21:54:52.623Z,20.63
2023-01-08T21:59:54.578Z,19.50
2023-01-08T22:04:56.591Z,18.65
2023-01-08T22:10:00.544Z,21.92
2023-01-08T22:15:02.205Z,21.05
2023-01-08T22:20:06.739Z,21.95
2023-01-08T22:25:09.267Z,18.88
2023-01-08T22:30:11.370Z,19.27
2023-01-08T22:35:13.040Z,18.27
2023-01-08T22:40:14.694Z,19.80
2023-01-08T22:45:16.360Z,18.58
2023-01-08T22:50:18.047Z,18.83
2023-01-08T22:55:19.766Z,20.77
2023-01-08T23:00:21.590Z,18.85
2023-01-08T23:05:23.231Z,19.00
2023-01-08T23:10:24.849Z,18.60
2023-01-08T23:15:26.499Z,18.50
2023-01-08T23:20:28.159Z,20.23
2023-01-08T23:25:31.991Z,21.40
2023-01-08T23:30:33.736Z,18.48
2023-01-08T23:35:35.498Z,19.58
2023-01-08T23:40:37.169Z,19.75
2023-01-08T23:45:39.287Z,19.80
2023-01-08T23:50:40.898Z,21.80
2023-01-08T23:55:42.517Z,19.88
